Time;durP1;ratioP1;P1;durP2;ratioP2;P2;SDS_P1;SDS_P2;PMS_P1;PMS_P2;Temp;Humidity;BMP_temperature;BMP_pressure;BME280_temperature;BME280_humidity;BME280_pressure;Samples;Min_cycle;Max_cycle;Signal;HPM_P1;HPM_P2
2022/04/16 00:02:03;;;;;;;2.40;2.20;;;;;;;12.20;69.85;96258.37;4351169;32;20239;-57
2022/04/16 00:04:29;;;;;;;2.67;2.47;;;;;;;12.19;69.56;96265.56;4365876;32;20172;-58
2022/04/16 00:06:55;;;;;;;2.50;2.40;;;;;;;11.95;69.00;96265.50;4361967;32;20263;-57
2022/04/16 00:09:21;;;;;;;2.53;2.43;;;;;;;11.90;67.87;96262.84;4368443;32;20225;-57
2022/04/16 00:11:46;;;;;;;2.53;2.33;;;;;;;12.00;69.07;96262.78;4368720;32;20184;-57
2022/04/16 00:14:12;;;;;;;2.43;2.33;;;;;;;11.95;68.16;96262.81;4367568;32;20192;-58
2022/04/16 00:16:38;;;;;;;2.47;2.27;;;;;;;12.11;70.32;96262.69;4366959;32;20222;-56
2022/04/16 00:19:03;;;;;;;2.30;2.20;;;;;;;12.09;69.80;96256.84;4353984;32;20209;-57
2022/04/16 00:21:28;;;;;;;2.50;2.40;;;;;;;12.00;69.16;96256.69;4367050;32;20189;-57
2022/04/16 00:23:54;;;;;;;2.30;2.20;;;;;;;12.14;68.84;96257.63;4369639;32;20307;-57
2022/04/16 00:26:21;;;;;;;2.67;2.50;;;;;;;12.18;69.42;96249.88;4372986;32;20269;-57
2022/04/16 00:28:47;;;;;;;2.30;2.20;;;;;;;12.12;69.44;96241.13;4370303;32;20173;-57
2022/04/16 00:31:14;;;;;;;2.50;2.40;;;;;;;12.09;67.98;96244.34;4350945;32;20189;-57
2022/04/16 00:33:39;;;;;;;2.27;2.17;;;;;;;12.12;69.37;96249.13;4346868;32;20177;-56
2022/04/16 00:36:11;;;;;;;2.87;2.60;;;;;;;12.14;69.70;96241.66;4355681;32;20203;-57
2022/04/16 00:38:36;;;;;;;2.40;2.20;;;;;;;12.34;68.37;96241.47;4367802;32;20227;-57
2022/04/16 00:41:02;;;;;;;2.90;2.80;;;;;;;12.20;66.72;96247.72;4367320;32;20189;-57
2022/04/16 00:43:28;;;;;;;2.57;2.47;;;;;;;12.24;66.81;96246.09;4365204;32;20193;-57
2022/04/16 00:45:56;;;;;;;2.00;1.90;;;;;;;12.12;68.68;96245.66;4363078;32;20219;-58
2022/04/16 00:48:22;;;;;;;2.30;2.20;;;;;;;12.04;69.25;96247.06;4389404;32;20199;-57
2022/04/16 00:50:52;;;;;;;2.63;2.50;;;;;;;12.20;67.85;96239.75;4369135;32;20256;-57
2022/04/16 00:53:17;;;;;;;2.40;2.07;;;;;;;11.73;67.68;96238.50;4369876;32;20200;-57
2022/04/16 00:55:43;;;;;;;2.10;2.00;;;;;;;12.09;68.92;96239.03;4362129;32;20188;-58
2022/04/16 00:58:09;;;;;;;2.50;2.30;;;;;;;11.90;68.60;96238.13;4375650;32;20181;-57
2022/04/16 01:00:35;;;;;;;2.13;2.03;;;;;;;12.09;69.10;96232.91;4366334;32;20199;-57
2022/04/16 01:03:01;;;;;;;1.97;1.87;;;;;;;12.09;68.18;96239.03;4369941;32;20272;-58
2022/04/16 01:05:27;;;;;;;2.80;2.60;;;;;;;12.03;68.76;96235.66;4364885;32;20196;-58
2022/04/16 01:07:57;;;;;;;2.37;2.27;;;;;;;11.82;65.71;96238.75;4368927;32;20188;-57
2022/04/16 01:10:28;;;;;;;2.23;2.13;;;;;;;11.93;68.81;96229.59;4356367;32;20194;-57
2022/04/16 01:12:54;;;;;;;2.10;2.00;;;;;;;11.85;69.11;96232.84;4350235;32;20201;-56
2022/04/16 01:15:20;;;;;;;2.57;2.47;;;;;;;11.76;67.60;96232.69;4372693;32;20199;-57
2022/04/16 01:17:47;;;;;;;1.97;1.87;;;;;;;11.86;69.59;96232.56;4365619;32;20182;-57
2022/04/16 01:20:13;;;;;;;2.27;2.17;;;;;;;11.97;66.41;96223.47;4369558;32;20177;-57
2022/04/16 01:22:39;;;;;;;2.43;2.13;;;;;;;11.69;67.95;96230.28;4355541;32;20181;-57
2022/04/16 01:25:06;;;;;;;2.00;1.90;;;;;;;11.68;68.58;96227.91;4370093;32;20197;-57
2022/04/16 01:27:31;;;;;;;2.10;2.00;;;;;;;11.93;68.16;96234.94;4362319;32;20272;-57
2022/04/16 01:29:59;;;;;;;2.20;2.10;;;;;;;12.05;68.56;96235.37;4363850;32;20189;-57
2022/04/16 01:32:25;;;;;;;2.00;1.90;;;;;;;12.15;69.08;96232.59;4364815;32;20220;-57
2022/04/16 01:34:50;;;;;;;2.07;1.97;;;;;;;11.94;68.22;96237.31;4376902;32;20222;-57
2022/04/16 01:37:16;;;;;;;2.57;2.40;;;;;;;12.09;67.34;96232.91;4358064;32;20185;-57
2022/04/16 01:39:41;;;;;;;3.27;2.20;;;;;;;11.91;66.82;96232.53;4362092;32;20188;-57
2022/04/16 01:42:07;;;;;;;2.30;2.20;;;;;;;11.86;68.90;96229.91;4370357;32;20184;-56
2022/04/16 01:44:33;;;;;;;2.20;1.97;;;;;;;11.82;68.72;96228.13;4377665;32;20181;-56
2022/04/16 01:46:58;;;;;;;2.90;2.20;;;;;;;11.92;68.32;96231.47;4365912;32;20215;-57
2022/04/16 01:49:26;;;;;;;2.23;2.13;;;;;;;11.98;69.01;96225.03;4362368;32;20270;-57
2022/04/16 01:51:51;;;;;;;2.57;2.47;;;;;;;12.13;68.14;96229.44;4353516;32;20199;-56
2022/04/16 01:54:16;;;;;;;2.03;1.90;;;;;;;11.66;68.69;96228.19;4371009;32;20204;-55
2022/04/16 01:56:42;;;;;;;2.20;2.10;;;;;;;11.93;68.28;96218.97;4362339;32;20216;-57
2022/04/16 01:59:11;;;;;;;1.90;1.80;;;;;;;11.74;69.85;96221.50;4367558;32;20232;-56
2022/04/16 02:01:36;;;;;;;3.13;2.17;;;;;;;11.83;69.02;96224.38;4364856;32;20254;-57
2022/04/16 02:04:02;;;;;;;3.13;2.53;;;;;;;11.98;68.66;96218.94;4370116;32;20199;-57
2022/04/16 02:06:28;;;;;;;2.40;2.30;;;;;;;11.96;68.60;96221.06;4372341;32;20266;-57
2022/04/16 02:08:53;;;;;;;2.67;2.57;;;;;;;11.81;68.76;96227.31;4362141;32;20238;-56
2022/04/16 02:11:19;;;;;;;2.70;2.50;;;;;;;11.75;68.53;96220.41;4358084;32;20212;-57
2022/04/16 02:13:44;;;;;;;2.43;2.33;;;;;;;11.80;69.00;96228.41;4362749;32;20248;-56
2022/04/16 02:16:15;;;;;;;2.40;2.30;;;;;;;11.69;68.10;96235.59;4369319;32;20189;-57
2022/04/16 02:18:41;;;;;;;3.10;2.90;;;;;;;11.46;69.19;96238.97;4363302;32;20185;-59
2022/04/16 02:21:12;;;;;;;2.80;2.70;;;;;;;11.38;70.00;96228.94;4379032;32;20239;-57
2022/04/16 02:23:38;;;;;;;2.40;2.30;;;;;;;11.21;70.10;96231.16;4362128;32;20221;-54
2022/04/16 02:26:07;;;;;;;2.73;2.53;;;;;;;11.25;70.40;96225.00;4367267;32;20192;-57
2022/04/16 02:28:36;;;;;;;2.60;2.50;;;;;;;11.19;70.60;96226.13;4360622;32;20177;-57
2022/04/16 02:31:01;;;;;;;2.77;2.57;;;;;;;11.35;69.26;96224.16;4358630;32;20208;-57
2022/04/16 02:33:27;;;;;;;3.70;3.40;;;;;;;11.24;71.26;96230.59;4371441;32;20176;-56
2022/04/16 02:35:52;;;;;;;3.10;2.93;;;;;;;11.24;70.04;96225.28;4367583;32;20196;-57
2022/04/16 02:38:18;;;;;;;2.80;2.60;;;;;;;11.49;70.29;96214.50;4373259;32;20189;-58
2022/04/16 02:40:43;;;;;;;2.73;2.53;;;;;;;11.33;69.79;96210.34;4367192;32;20177;-55
2022/04/16 02:43:08;;;;;;;2.87;2.67;;;;;;;11.45;70.10;96215.31;4373688;32;20181;-57
2022/04/16 02:48:18;;;;;;;3.30;2.70;;;;;;;11.25;69.00;96214.38;4360931;32;20195;-57
2022/04/16 02:50:44;;;;;;;3.10;2.90;;;;;;;11.39;71.68;96219.87;4368419;32;20204;-57
2022/04/16 02:53:10;;;;;;;3.13;2.93;;;;;;;11.22;69.06;96222.13;4369185;32;20189;-57
2022/04/16 02:55:35;;;;;;;3.60;3.33;;;;;;;11.14;71.31;96217.38;4363639;32;20185;-57
2022/04/16 02:58:00;;;;;;;3.77;3.47;;;;;;;10.82;70.84;96221.25;4372134;32;20299;-57
2022/04/16 03:00:26;;;;;;;3.20;3.00;;;;;;;10.85;71.70;96226.00;4371783;32;20204;-57
2022/04/16 03:02:52;;;;;;;3.50;3.20;;;;;;;11.00;73.22;96225.97;4361189;32;20184;-57
2022/04/16 03:05:18;;;;;;;3.73;3.43;;;;;;;10.81;71.67;96230.25;4370440;32;20201;-57
2022/04/16 03:07:44;;;;;;;3.83;3.63;;;;;;;10.59;72.46;96229.84;4368411;32;20207;-57
2022/04/16 03:10:10;;;;;;;3.63;3.40;;;;;;;10.65;72.87;96229.53;4370380;32;20182;-60
2022/04/16 03:12:46;;;;;;;3.70;3.40;;;;;;;10.90;73.17;96226.00;4360018;32;20207;-59
2022/04/16 03:17:57;;;;;;;3.47;3.27;;;;;;;11.12;73.89;96222.16;4366103;32;20218;-60
2022/04/16 03:20:23;;;;;;;3.63;3.43;;;;;;;10.96;71.88;96224.12;4373346;32;20189;-56
2022/04/16 03:22:48;;;;;;;4.17;3.43;;;;;;;11.19;73.15;96214.72;4370647;32;20173;-57
2022/04/16 03:25:14;;;;;;;4.00;3.70;;;;;;;11.18;73.64;96218.44;4367893;32;20189;-57
2022/04/16 03:27:39;;;;;;;3.87;3.57;;;;;;;11.37;71.80;96224.69;4367989;32;20189;-56
2022/04/16 03:30:06;;;;;;;4.30;4.00;;;;;;;11.12;72.04;96220.31;4372908;32;20199;-57
2022/04/16 03:32:31;;;;;;;4.60;4.30;;;;;;;11.01;72.70;96226.75;4363505;32;20302;-58
2022/04/16 03:34:57;;;;;;;4.17;3.87;;;;;;;10.94;72.67;96220.94;4366992;32;20208;-57
2022/04/16 03:37:24;;;;;;;4.70;4.40;;;;;;;10.92;73.67;96223.88;4376019;32;20177;-57
2022/04/16 03:39:50;;;;;;;4.03;3.83;;;;;;;11.09;72.52;96214.75;4375012;32;20238;-57
2022/04/16 03:42:18;;;;;;;4.13;3.83;;;;;;;11.22;73.24;96214.16;4365707;32;20184;-56
2022/04/16 03:44:43;;;;;;;4.73;4.37;;;;;;;10.97;73.64;96223.84;4365119;32;20207;-57
2022/04/16 03:47:10;;;;;;;4.60;4.20;;;;;;;10.89;72.55;96221.75;4372366;32;20193;-57
2022/04/16 03:49:35;;;;;;;4.93;4.53;;;;;;;10.99;74.20;96221.72;4371669;32;20334;-57
2022/04/16 03:52:00;;;;;;;4.70;4.40;;;;;;;10.87;73.81;96221.22;4359688;32;20252;-57
2022/04/16 04:00:05;;;;;;;4.60;4.20;;;;;;;10.90;74.16;96227.84;4363784;32;20243;-57
2022/04/16 04:02:36;;;;;;;5.13;4.83;;;;;;;10.92;73.91;96231.03;4362411;32;20263;-57
2022/04/16 04:05:03;;;;;;;4.37;4.07;;;;;;;10.81;72.71;96232.91;4370482;32;20252;-57
2022/04/16 04:07:29;;;;;;;5.33;4.83;;;;;;;11.07;73.25;96233.59;4360796;32;20193;-56
2022/04/16 04:09:54;;;;;;;4.80;4.40;;;;;;;10.77;73.19;96233.75;4358852;32;20267;-57
2022/04/16 04:12:19;;;;;;;5.57;4.90;;;;;;;10.72;74.10;96229.25;4364506;32;20226;-57
2022/04/16 04:14:46;;;;;;;4.70;4.40;;;;;;;10.61;74.00;96233.00;4356130;32;20272;-57
2022/04/16 04:17:12;;;;;;;4.87;4.47;;;;;;;10.79;74.17;96236.94;4367240;32;20207;-57
2022/04/16 04:19:40;;;;;;;4.83;4.47;;;;;;;10.52;74.04;96238.06;4365384;32;20197;-57
2022/04/16 04:22:07;;;;;;;4.13;3.83;;;;;;;10.61;75.43;96225.81;4367105;32;20336;-59
2022/04/16 04:24:33;;;;;;;4.57;4.27;;;;;;;10.81;74.23;96240.88;4376479;32;20185;-58
2022/04/16 04:27:00;;;;;;;4.80;4.50;;;;;;;10.70;73.25;96239.34;4350669;32;20304;-56
2022/04/16 04:29:27;;;;;;;4.90;4.37;;;;;;;10.40;73.67;96240.22;4367223;32;20193;-58
2022/04/16 04:31:52;;;;;;;5.20;4.80;;;;;;;10.62;74.89;96250.50;4376666;32;20180;-58
2022/04/16 04:34:17;;;;;;;4.47;4.17;;;;;;;10.41;74.98;96251.63;4368358;32;20215;-58
2022/04/16 04:36:43;;;;;;;6.63;4.90;;;;;;;10.10;75.81;96249.00;4366012;32;20191;-59
2022/04/16 04:39:08;;;;;;;4.77;4.20;;;;;;;10.20;75.35;96251.66;4368064;32;20189;-58
2022/04/16 04:41:34;;;;;;;4.90;4.60;;;;;;;10.24;75.51;96258.03;4362751;32;20203;-57
2022/04/16 04:43:59;;;;;;;4.93;4.53;;;;;;;10.18;75.76;96253.78;4357877;32;20271;-58
2022/04/16 04:46:25;;;;;;;4.40;4.10;;;;;;;10.23;76.48;96251.13;4368306;32;20295;-57
2022/04/16 04:48:50;;;;;;;4.10;3.80;;;;;;;10.48;76.07;96257.44;4366762;32;20184;-57
2022/04/16 04:51:15;;;;;;;5.00;4.60;;;;;;;10.52;74.24;96255.84;4363332;32;20187;-57
2022/04/16 04:53:40;;;;;;;4.53;4.23;;;;;;;10.47;73.87;96256.66;4364596;32;20173;-57
2022/04/16 04:56:12;;;;;;;4.67;4.33;;;;;;;10.49;75.31;96267.00;4366002;32;20222;-57
2022/04/16 04:58:37;;;;;;;4.67;4.37;;;;;;;10.21;76.20;96269.16;4369954;32;20204;-57
2022/04/16 05:01:03;;;;;;;4.30;4.00;;;;;;;10.38;75.34;96266.25;4359930;32;20300;-57
2022/04/16 05:03:28;;;;;;;4.17;3.87;;;;;;;10.44;75.52;96267.00;4356362;32;20215;-58
2022/04/16 05:05:54;;;;;;;4.83;4.53;;;;;;;10.53;75.21;96265.41;4371716;32;20232;-57
2022/04/16 05:08:19;;;;;;;4.33;3.93;;;;;;;10.61;73.76;96276.25;4363948;32;20208;-57
2022/04/16 05:10:44;;;;;;;6.83;4.00;;;;;;;10.53;75.88;96271.50;4352580;32;20294;-57
2022/04/16 05:13:10;;;;;;;5.07;4.77;;;;;;;10.87;74.29;96276.97;4368530;32;20208;-57
2022/04/16 05:15:35;;;;;;;3.90;3.63;;;;;;;10.44;72.57;96277.62;4366342;32;20198;-57
2022/04/16 05:18:00;;;;;;;4.87;4.47;;;;;;;10.53;73.82;96276.81;4375043;32;20265;-58
2022/04/16 05:20:25;;;;;;;5.03;4.63;;;;;;;10.09;74.05;96281.87;4371291;32;20204;-58
2022/04/16 05:22:51;;;;;;;4.37;4.00;;;;;;;10.09;75.02;96281.87;4372331;32;20203;-57
2022/04/16 05:25:16;;;;;;;4.73;4.43;;;;;;;9.97;75.93;96278.72;4360470;32;20177;-58
2022/04/16 05:27:41;;;;;;;4.40;4.10;;;;;;;10.03;75.50;96282.13;4368839;32;20185;-58
2022/04/16 05:30:13;;;;;;;4.50;4.20;;;;;;;10.31;75.76;96278.97;4357128;32;20197;-57
2022/04/16 05:32:42;;;;;;;3.80;3.50;;;;;;;10.61;74.83;96281.53;4364893;32;20199;-57
2022/04/16 05:35:09;;;;;;;4.13;3.83;;;;;;;10.73;74.81;96288.44;4352512;32;20285;-57
2022/04/16 05:37:35;;;;;;;4.30;4.03;;;;;;;10.68;73.96;96284.72;4365711;32;20189;-57
2022/04/16 05:40:02;;;;;;;4.00;3.70;;;;;;;10.85;74.04;96287.06;4374175;32;20330;-57
2022/04/16 05:42:27;;;;;;;4.17;3.87;;;;;;;10.76;72.82;96286.03;4370135;32;20192;-57
2022/04/16 05:44:59;;;;;;;4.60;4.30;;;;;;;10.60;74.70;96292.44;4361958;32;20220;-57
2022/04/16 05:47:24;;;;;;;4.80;4.40;;;;;;;10.37;74.53;96296.47;4359807;32;20189;-57
2022/04/16 05:49:49;;;;;;;4.00;3.70;;;;;;;10.47;72.65;96293.00;4363342;32;20246;-57
2022/04/16 05:52:18;;;;;;;3.60;3.40;;;;;;;10.56;73.25;96296.72;4374857;32;20243;-57
2022/04/16 05:54:43;;;;;;;4.33;3.97;;;;;;;10.46;75.56;96286.91;4356471;32;20185;-57
2022/04/16 05:57:09;;;;;;;4.10;3.80;;;;;;;10.53;74.37;96300.69;4352223;32;20300;-57
2022/04/16 05:59:35;;;;;;;5.03;4.27;;;;;;;10.58;74.41;96294.59;4366283;32;20197;-57
2022/04/16 06:02:01;;;;;;;3.87;3.57;;;;;;;10.90;75.15;96297.66;4375631;32;20203;-57
2022/04/16 06:04:26;;;;;;;4.30;4.00;;;;;;;10.98;73.60;96302.44;4367247;32;20199;-57
2022/04/16 06:06:51;;;;;;;4.40;4.10;;;;;;;10.85;73.36;96304.84;4349447;32;20193;-57
2022/04/16 06:09:17;;;;;;;3.70;3.40;;;;;;;11.00;73.85;96297.66;4349634;32;20212;-57
2022/04/16 06:11:42;;;;;;;4.20;3.90;;;;;;;11.27;72.75;96299.09;4356777;32;20189;-57
2022/04/16 06:14:08;;;;;;;4.40;3.97;;;;;;;11.45;73.14;96297.69;4366295;32;20199;-56
2022/04/16 06:16:33;;;;;;;4.50;4.20;;;;;;;11.10;72.32;96301.31;4362755;32;20185;-57
2022/04/16 06:18:58;;;;;;;3.80;3.50;;;;;;;11.30;71.74;96295.91;4364124;32;20197;-57
2022/04/16 06:21:24;;;;;;;5.20;3.90;;;;;;;11.32;72.05;96301.75;4365983;32;20248;-58
2022/04/16 06:23:50;;;;;;;5.43;4.07;;;;;;;11.41;71.31;96300.12;4367293;32;20185;-56
2022/04/16 06:26:16;;;;;;;4.20;3.90;;;;;;;11.53;71.94;96303.22;4369909;32;20186;-57
2022/04/16 06:28:41;;;;;;;4.50;3.93;;;;;;;11.40;71.66;96306.50;4361573;32;20185;-58
2022/04/16 06:31:12;;;;;;;4.03;3.70;;;;;;;11.34;72.80;96296.97;4368332;32;20192;-57
2022/04/16 06:33:38;;;;;;;4.03;3.70;;;;;;;11.35;71.66;96295.88;4368726;32;20245;-57
2022/04/16 06:36:03;;;;;;;4.20;3.90;;;;;;;11.40;73.05;96303.84;4372264;32;20195;-57
2022/04/16 06:38:29;;;;;;;4.43;4.13;;;;;;;11.10;71.99;96303.97;4374287;32;20189;-56
2022/04/16 06:40:55;;;;;;;5.87;3.97;;;;;;;10.81;72.02;96309.09;4365033;32;20180;-57
2022/04/16 06:43:20;;;;;;;6.60;3.33;;;;;;;10.93;73.30;96307.75;4351004;32;20232;-57
2022/04/16 06:45:45;;;;;;;4.47;4.17;;;;;;;11.03;74.23;96304.25;4370118;32;20188;-57
2022/04/16 06:48:11;;;;;;;4.63;4.33;;;;;;;10.75;72.40;96305.69;4369382;32;20201;-57
2022/04/16 06:50:36;;;;;;;4.73;4.20;;;;;;;10.93;73.25;96313.06;4365599;32;20185;-58
2022/04/16 06:53:01;;;;;;;4.43;4.13;;;;;;;11.17;74.23;96315.09;4370985;32;20260;-57
2022/04/16 06:55:26;;;;;;;4.30;4.00;;;;;;;11.10;72.99;96314.59;4366464;32;20188;-57
2022/04/16 06:57:52;;;;;;;4.80;4.47;;;;;;;11.18;72.92;96309.53;4368739;32;20192;-57
2022/04/16 07:00:17;;;;;;;4.53;4.13;;;;;;;10.91;72.55;96314.38;4355394;32;20174;-57
2022/04/16 07:02:43;;;;;;;3.93;3.63;;;;;;;11.08;72.51;96314.84;4352916;32;20185;-58
2022/04/16 07:05:08;;;;;;;4.03;3.77;;;;;;;11.25;73.68;96311.84;4366380;32;20256;-57
2022/04/16 07:07:34;;;;;;;4.60;4.27;;;;;;;11.28;73.86;96311.31;4370510;32;20278;-57
2022/04/16 07:09:59;;;;;;;4.10;3.80;;;;;;;11.33;73.07;96321.94;4355069;32;20185;-57
2022/04/16 07:12:25;;;;;;;4.70;4.40;;;;;;;11.43;72.86;96326.41;4373516;32;20220;-56
2022/04/16 07:14:50;;;;;;;4.10;3.90;;;;;;;11.28;72.92;96329.91;4360524;32;20196;-57
2022/04/16 07:17:16;;;;;;;4.40;4.10;;;;;;;10.99;72.24;96327.13;4368073;32;20195;-57
2022/04/16 07:19:41;;;;;;;4.47;4.17;;;;;;;10.82;72.74;96326.63;4378564;32;20207;-60
2022/04/16 07:22:06;;;;;;;4.50;4.20;;;;;;;11.05;75.23;96325.22;4371312;32;20258;-56
2022/04/16 07:24:32;;;;;;;4.30;4.10;;;;;;;11.11;72.94;96334.75;4368775;32;20189;-58
2022/04/16 07:26:57;;;;;;;4.57;4.27;;;;;;;11.01;72.22;96335.63;4374055;32;20200;-58
2022/04/16 07:29:24;;;;;;;4.90;4.50;;;;;;;11.01;74.00;96340.91;4375424;32;20257;-60
2022/04/16 07:31:50;;;;;;;4.23;3.93;;;;;;;10.74;72.28;96343.91;4370538;32;20196;-61
2022/04/16 07:34:16;;;;;;;3.80;3.60;;;;;;;10.81;73.77;96336.44;4364526;32;20227;-58
2022/04/16 07:36:42;;;;;;;4.40;4.07;;;;;;;10.93;73.77;96338.81;4367502;32;20204;-61
2022/04/16 07:39:07;;;;;;;7.17;4.60;;;;;;;10.78;72.59;96352.13;4368560;32;20262;-57
2022/04/16 07:41:33;;;;;;;4.30;4.00;;;;;;;10.91;74.80;96352.34;4368660;32;20204;-59
2022/04/16 07:44:03;;;;;;;4.97;4.57;;;;;;;10.49;72.63;96360.66;4372731;32;20189;-57
2022/04/16 07:46:32;;;;;;;4.77;4.47;;;;;;;10.14;74.09;96358.78;4352169;32;20249;-56
2022/04/16 07:48:57;;;;;;;4.93;4.60;;;;;;;9.91;75.37;96362.72;4353845;32;20353;-60
2022/04/16 07:51:26;;;;;;;4.90;4.53;;;;;;;9.91;75.85;96367.22;4359303;32;20203;-57
2022/04/16 07:53:53;;;;;;;5.87;3.93;;;;;;;9.68;76.16;96365.06;4361047;32;20196;-57
2022/04/16 07:56:19;;;;;;;4.70;4.40;;;;;;;9.51;76.94;96365.28;4364749;32;20296;-60
2022/04/16 07:58:44;;;;;;;4.87;4.57;;;;;;;9.50;77.37;96364.47;4368153;32;20281;-60
2022/04/16 08:01:12;;;;;;;4.77;4.47;;;;;;;9.50;77.21;96371.63;4365505;32;20256;-60
2022/04/16 08:03:38;;;;;;;4.87;4.57;;;;;;;9.54;77.31;96368.19;4363219;32;20185;-60
2022/04/16 08:06:03;;;;;;;4.70;4.40;;;;;;;9.51;77.38;96360.78;4357967;32;20299;-59
2022/04/16 08:08:29;;;;;;;4.63;4.33;;;;;;;9.68;77.14;96371.16;4367193;32;20285;-60
2022/04/16 08:10:54;;;;;;;4.50;4.20;;;;;;;9.63;77.18;96366.63;4359960;32;20195;-60
2022/04/16 08:13:20;;;;;;;4.87;4.57;;;;;;;9.46;77.89;96363.41;4365074;32;20195;-57
2022/04/16 08:15:49;;;;;;;4.80;4.50;;;;;;;9.55;76.94;96369.78;4367082;32;20228;-57
2022/04/16 08:18:15;;;;;;;4.30;4.00;;;;;;;9.60;76.77;96369.00;4367737;32;20189;-60
2022/04/16 08:20:41;;;;;;;5.07;4.67;;;;;;;9.70;76.82;96369.03;4377777;32;20318;-60
2022/04/16 08:23:07;;;;;;;4.57;4.27;;;;;;;9.73;77.12;96378.31;4364422;32;20285;-60
2022/04/16 08:28:03;;;;;;;4.67;4.37;;;;;;;9.50;77.79;96369.78;4353762;32;20341;-57
2022/04/16 08:30:30;;;;;;;5.17;4.77;;;;;;;9.39;78.12;96380.56;4366709;32;20277;-61
2022/04/16 08:32:55;;;;;;;5.07;4.67;;;;;;;9.28;78.96;96375.25;4361494;32;20309;-62
2022/04/16 08:35:21;;;;;;;4.83;4.43;;;;;;;9.44;79.01;96381.41;4358478;32;20299;-63
2022/04/16 08:37:48;;;;;;;4.90;4.60;;;;;;;9.53;77.75;96385.16;4368073;32;20240;-60
2022/04/16 08:40:14;;;;;;;5.13;4.73;;;;;;;9.67;76.97;96384.66;4374919;32;20209;-58
2022/04/16 08:42:42;;;;;;;4.73;4.43;;;;;;;9.60;76.23;96388.34;4374551;32;20272;-57
2022/04/16 08:45:09;;;;;;;7.13;5.27;;;;;;;9.63;77.23;96384.38;4363443;32;20277;-55
2022/04/16 08:47:35;;;;;;;5.07;4.77;;;;;;;9.69;78.38;96382.53;4363230;32;20278;-57
2022/04/16 08:50:01;;;;;;;4.90;4.57;;;;;;;9.73;76.98;96383.63;4352938;32;20265;-57
2022/04/16 08:52:31;;;;;;;4.90;4.60;;;;;;;9.64;77.23;96389.41;4365572;32;20338;-57
2022/04/16 08:54:58;;;;;;;5.60;5.20;;;;;;;9.62;78.53;96383.56;4370012;32;20308;-54
2022/04/16 08:57:23;;;;;;;5.27;4.83;;;;;;;9.76;78.29;96383.09;4360498;32;20302;-56
2022/04/16 08:59:52;;;;;;;5.27;4.77;;;;;;;9.90;77.60;96389.47;4363730;32;20276;-56
2022/04/16 09:02:19;;;;;;;5.77;5.27;;;;;;;10.04;78.72;96393.22;4374334;32;20185;-57
2022/04/16 09:04:46;;;;;;;4.97;4.67;;;;;;;10.22;77.90;96387.41;4367261;32;20372;-57
2022/04/16 09:07:12;;;;;;;4.90;4.60;;;;;;;10.19;76.49;96393.25;4355314;32;20331;-58
2022/04/16 09:09:37;;;;;;;5.20;4.70;;;;;;;10.21;76.42;96391.13;4371211;32;20352;-56
2022/04/16 09:12:03;;;;;;;6.07;4.90;;;;;;;10.05;76.82;96401.97;4357494;32;20193;-56
2022/04/16 09:14:36;;;;;;;5.23;4.93;;;;;;;10.03;77.85;96391.62;4363390;32;20185;-57
2022/04/16 09:17:06;;;;;;;4.80;4.50;;;;;;;10.13;76.30;96402.25;4353331;32;20188;-56
2022/04/16 09:19:32;;;;;;;5.57;5.17;;;;;;;9.94;76.17;96401.16;4359129;32;20371;-55
2022/04/16 09:21:58;;;;;;;5.60;5.17;;;;;;;9.93;77.16;96410.97;4368286;32;20288;-58
2022/04/16 09:24:23;;;;;;;5.40;5.00;;;;;;;10.02;78.82;96408.56;4365893;32;20193;-60
2022/04/16 09:26:49;;;;;;;4.30;4.00;;;;;;;10.40;75.79;96409.19;4372986;32;20201;-57
2022/04/16 09:29:16;;;;;;;4.83;4.53;;;;;;;10.46;75.03;96397.50;4360402;32;20189;-57
2022/04/16 09:31:45;;;;;;;4.10;3.80;;;;;;;10.72;74.25;96395.66;4375041;32;20300;-60
2022/04/16 09:34:21;;;;;;;4.70;4.40;;;;;;;10.82;73.40;96391.09;4367436;32;20185;-57
2022/04/16 09:36:48;;;;;;;4.77;4.47;;;;;;;10.83;73.40;96400.66;4366297;32;20211;-57
2022/04/16 09:39:14;;;;;;;4.83;4.50;;;;;;;10.85;73.11;96400.41;4354411;32;20203;-57
2022/04/16 09:41:41;;;;;;;4.80;4.50;;;;;;;11.06;73.22;96401.16;4360729;32;20230;-56
2022/04/16 09:44:21;;;;;;;6.67;6.07;;;;;;;10.89;73.35;96406.78;4357668;32;20185;-56
2022/04/16 09:46:48;;;;;;;5.40;5.10;;;;;;;10.83;73.98;96410.50;4361698;32;20247;-56
2022/04/16 09:49:15;;;;;;;4.67;4.47;;;;;;;10.85;76.10;96405.72;4363340;32;20207;-57
2022/04/16 09:51:42;;;;;;;4.43;4.17;;;;;;;10.68;76.50;96406.00;4372350;32;20185;-57
2022/04/16 09:54:12;;;;;;;4.67;4.30;;;;;;;11.16;74.48;96403.81;4365649;32;20204;-57
2022/04/16 09:56:39;;;;;;;4.80;4.40;;;;;;;11.11;75.42;96411.78;4376719;32;20197;-57
2022/04/16 09:59:06;;;;;;;4.10;3.90;;;;;;;10.97;75.67;96409.69;4363295;32;20208;-56
2022/04/16 10:01:33;;;;;;;4.07;3.87;;;;;;;10.82;76.95;96412.34;4365416;32;20288;-58
2022/04/16 10:04:02;;;;;;;3.87;3.63;;;;;;;10.65;76.66;96414.50;4367635;32;20242;-55
2022/04/16 10:06:31;;;;;;;4.40;4.00;;;;;;;10.78;75.12;96421.13;4369661;32;20199;-57
2022/04/16 10:08:58;;;;;;;4.50;4.10;;;;;;;10.75;75.23;96416.34;4366465;32;20238;-57
2022/04/16 10:14:33;;;;;;;4.40;4.00;;;;;;;11.09;74.92;96416.56;4366157;32;20219;-61
2022/04/16 10:17:20;;;;;;;3.97;3.70;;;;;;;11.21;71.62;96409.91;4354281;32;20185;-56
2022/04/16 10:19:47;;;;;;;4.93;4.00;;;;;;;11.31;72.57;96417.84;4353719;32;20251;-57
2022/04/16 10:22:27;;;;;;;3.97;3.77;;;;;;;11.41;71.97;96411.69;4369019;32;20205;-56
2022/04/16 10:24:58;;;;;;;3.60;3.40;;;;;;;11.36;72.66;96412.50;4369454;32;20217;-57
2022/04/16 10:27:32;;;;;;;3.30;3.10;;;;;;;11.35;69.90;96426.06;4372066;32;20248;-58
2022/04/16 10:30:11;;;;;;;3.70;3.50;;;;;;;11.31;70.33;96419.69;4361259;32;20188;-58
2022/04/16 10:32:42;;;;;;;3.90;3.60;;;;;;;11.22;69.72;96418.66;4338685;32;20207;-58
2022/04/16 10:35:13;;;;;;;3.83;3.63;;;;;;;11.92;71.50;96424.78;4354803;32;20354;-56
2022/04/16 10:38:03;;;;;;;4.50;3.93;;;;;;;11.99;67.90;96422.62;4344384;32;20193;-58
2022/04/16 10:40:30;;;;;;;4.27;3.87;;;;;;;11.84;68.32;96418.19;4347349;32;20200;-56
2022/04/16 10:43:01;;;;;;;3.97;3.77;;;;;;;11.57;68.28;96426.53;4340505;32;20237;-56
2022/04/16 10:45:27;;;;;;;4.20;4.00;;;;;;;11.17;69.46;96430.09;4356980;32;20216;-58
2022/04/16 10:47:55;;;;;;;4.43;4.13;;;;;;;11.52;69.68;96426.53;4351341;32;20178;-58
2022/04/16 10:50:23;;;;;;;4.33;4.03;;;;;;;11.64;68.30;96428.88;4341981;32;20204;-58
2022/04/16 10:52:56;;;;;;;3.87;3.57;;;;;;;11.57;68.43;96433.69;4342576;32;20227;-58
2022/04/16 10:55:30;;;;;;;4.33;4.13;;;;;;;11.84;67.51;96436.00;4369902;32;20225;-58
2022/04/16 10:58:08;;;;;;;4.63;3.87;;;;;;;11.52;68.24;96447.78;4340713;32;20232;-57
2022/04/16 11:00:46;;;;;;;4.23;3.53;;;;;;;11.49;68.93;96443.00;4367923;32;20203;-59
2022/04/16 11:03:21;;;;;;;4.20;3.87;;;;;;;11.42;68.92;96447.84;4351348;32;20269;-59
2022/04/16 11:05:48;;;;;;;3.70;3.50;;;;;;;11.36;68.44;96439.06;4372240;32;20246;-56
2022/04/16 11:08:16;;;;;;;4.10;3.70;;;;;;;11.52;68.97;96439.81;4342611;32;20194;-56
2022/04/16 11:10:43;;;;;;;3.53;3.33;;;;;;;11.56;70.94;96442.72;4370730;32;20183;-57
2022/04/16 11:13:12;;;;;;;3.73;3.53;;;;;;;11.44;69.52;96451.00;4359804;32;20193;-55
2022/04/16 11:15:41;;;;;;;4.83;3.53;;;;;;;11.56;70.42;96448.06;4344298;32;20296;-43
2022/04/16 11:18:09;;;;;;;4.33;3.93;;;;;;;11.97;72.99;96443.38;4367031;32;20204;-41
2022/04/16 11:20:34;;;;;;;3.87;3.57;;;;;;;12.76;73.47;96444.97;4364947;32;20193;-41
2022/04/16 11:23:09;;;;;;;4.00;3.80;;;;;;;12.14;67.10;96448.34;4356708;32;20181;-42
2022/04/16 11:34:17;;;;;;;4.07;3.87;;;;;;;12.06;67.39;96444.38;4377259;32;20244;-52
2022/04/16 11:36:42;;;;;;;4.17;3.87;;;;;;;11.61;69.61;96438.22;4362825;32;20199;-63
2022/04/16 11:39:25;;;;;;;5.00;4.70;;;;;;;11.14;70.01;96435.94;4376138;32;20252;-55
2022/04/16 11:41:53;;;;;;;4.43;4.13;;;;;;;11.13;69.33;96438.88;4368040;32;20260;-55
2022/04/16 11:44:50;;;;;;;4.17;3.90;;;;;;;11.01;69.81;96447.13;4369384;32;20193;-55
2022/04/16 11:47:37;;;;;;;4.07;3.87;;;;;;;10.72;68.54;96444.22;4359667;32;20269;-52
2022/04/16 11:50:06;;;;;;;3.70;3.50;;;;;;;10.71;69.91;96452.44;4362900;32;20253;-54
2022/04/16 11:52:33;;;;;;;3.67;3.47;;;;;;;10.80;70.33;96435.72;4369793;32;20211;-55
2022/04/16 11:55:14;;;;;;;3.60;3.40;;;;;;;10.86;70.34;96442.59;4372365;32;20177;-57
2022/04/16 11:57:47;;;;;;;3.37;3.17;;;;;;;10.86;70.05;96439.94;4367710;32;20272;-55
2022/04/16 12:00:13;;;;;;;3.70;3.50;;;;;;;11.02;70.29;96452.16;4356767;32;20181;-55
